Terminal Aerodrome Forecast
Issued by NWS

Home | Current Version | Previous Version | Text Only | Print | Product List | Glossary On
Versions: 1 2 3 4 5 6 7 8 9 10 11 12 13 14 15 16
000
FTUS43 KEAX 281404 AAA
TAFSTJ
TAF AMD
KSTJ 281404Z 2814/2912 07010KT P6SM -SHRA SCT007 BKN012
      TEMPO 2814/2816 5SM SHRA BKN007
     FM281600 06010KT P6SM OVC015
     FM282100 03008KT P6SM BKN020
     FM290300 02010KT P6SM BKN012
     FM291000 02012KT P6SM -SHRA OVC008=

USA.gov is the U.S. government's official web portal to all federal, state and local government web resources and services.